Time;durP1;ratioP1;P1;durP2;ratioP2;P2;SDS_P1;SDS_P2;PMS_P1;PMS_P2;Temp;Humidity;BMP_temperature;BMP_pressure;BME280_temperature;BME280_humidity;BME280_pressure;Samples;Min_cycle;Max_cycle;Signal;HPM_P1;HPM_P2
2023/01/07 00:01:32;;;;;;;17.75;14.48;;;;;;;;;;5121864;27;20413;-75
2023/01/07 00:03:58;;;;;;;20.80;14.60;;;;;;;;;;5110380;27;20051;-71
2023/01/07 00:06:32;;;;;;;18.65;14.27;;;;;;;;;;5105876;27;20099;-73
2023/01/07 00:08:59;;;;;;;16.05;13.23;;;;;;;;;;5109730;27;20135;-71
2023/01/07 00:11:27;;;;;;;16.40;13.80;;;;;;;;;;5106469;27;20055;-72
2023/01/07 00:13:54;;;;;;;17.33;12.50;;;;;;;;;;5107305;27;20095;-73
2023/01/07 00:16:22;;;;;;;13.00;10.93;;;;;;;;;;5109267;27;20048;-72
2023/01/07 00:18:49;;;;;;;14.18;11.70;;;;;;;;;;5124350;27;20058;-71
2023/01/07 00:21:16;;;;;;;12.38;10.85;;;;;;;;;;5125699;27;20077;-72
2023/01/07 00:23:43;;;;;;;16.08;11.35;;;;;;;;;;5125951;27;20063;-73
2023/01/07 00:26:14;;;;;;;13.90;11.18;;;;;;;;;;5123964;27;20421;-72
2023/01/07 00:28:41;;;;;;;16.13;10.07;;;;;;;;;;5111543;27;20052;-74
2023/01/07 00:31:09;;;;;;;16.67;11.02;;;;;;;;;;5119734;27;20150;-73
2023/01/07 00:33:45;;;;;;;17.05;10.82;;;;;;;;;;5107202;27;20559;-73
2023/01/07 00:36:12;;;;;;;13.30;10.07;;;;;;;;;;5116007;27;20047;-74
2023/01/07 00:38:39;;;;;;;14.32;10.50;;;;;;;;;;5115568;27;20131;-73
2023/01/07 00:41:05;;;;;;;13.25;9.93;;;;;;;;;;5104870;27;20522;-74
2023/01/07 00:43:32;;;;;;;12.65;10.70;;;;;;;;;;5103485;27;20052;-72
2023/01/07 00:45:58;;;;;;;14.30;10.45;;;;;;;;;;5105621;27;20079;-73
2023/01/07 00:48:24;;;;;;;15.85;9.98;;;;;;;;;;5120696;27;20059;-73
2023/01/07 00:50:52;;;;;;;13.35;9.63;;;;;;;;;;5117246;27;20069;-72
2023/01/07 00:53:18;;;;;;;12.88;10.18;;;;;;;;;;5120976;27;20104;-73
2023/01/07 00:55:46;;;;;;;16.10;9.98;;;;;;;;;;5112063;27;20048;-73
2023/01/07 00:58:22;;;;;;;11.80;9.60;;;;;;;;;;5121265;27;20052;-71
2023/01/07 01:00:49;;;;;;;13.50;9.00;;;;;;;;;;5114309;27;20450;-73
2023/01/07 01:03:15;;;;;;;12.50;9.32;;;;;;;;;;5119929;27;20143;-71
2023/01/07 01:05:42;;;;;;;14.68;9.07;;;;;;;;;;5124454;27;20047;-71
2023/01/07 01:08:08;;;;;;;12.18;8.32;;;;;;;;;;5105667;27;20087;-74
2023/01/07 01:10:35;;;;;;;11.10;8.30;;;;;;;;;;5108476;27;20047;-72
2023/01/07 01:13:01;;;;;;;12.25;7.85;;;;;;;;;;5117879;27;20297;-73
2023/01/07 01:15:28;;;;;;;13.10;9.05;;;;;;;;;;5112546;27;20087;-71
2023/01/07 01:17:54;;;;;;;12.27;9.27;;;;;;;;;;5105258;27;20052;-72
2023/01/07 01:20:21;;;;;;;12.80;8.43;;;;;;;;;;5109134;27;20137;-73
2023/01/07 01:22:47;;;;;;;10.05;8.30;;;;;;;;;;5106712;27;20050;-70
2023/01/07 01:25:14;;;;;;;9.82;7.22;;;;;;;;;;5105927;27;20078;-74
2023/01/07 01:27:40;;;;;;;11.10;8.43;;;;;;;;;;5110702;27;20048;-73
2023/01/07 01:30:07;;;;;;;10.60;7.82;;;;;;;;;;5116938;27;20185;-73
2023/01/07 01:32:33;;;;;;;11.98;8.25;;;;;;;;;;5117010;27;20056;-72
2023/01/07 01:35:00;;;;;;;12.07;7.70;;;;;;;;;;5109949;27;20086;-73
2023/01/07 01:37:26;;;;;;;15.75;9.80;;;;;;;;;;5117573;27;20494;-73
2023/01/07 01:39:52;;;;;;;13.82;8.00;;;;;;;;;;5104302;27;20044;-72
2023/01/07 01:42:21;;;;;;;14.20;8.10;;;;;;;;;;5089541;27;20060;-72
2023/01/07 01:44:47;;;;;;;11.30;7.95;;;;;;;;;;5082988;27;20572;-72
2023/01/07 01:47:34;;;;;;;13.80;7.95;;;;;;;;;;5109175;27;20498;-75
2023/01/07 01:50:03;;;;;;;9.13;7.75;;;;;;;;;;5092231;27;20096;-71
2023/01/07 01:52:53;;;;;;;12.82;8.07;;;;;;;;;;5109215;27;20044;-73
2023/01/07 01:55:22;;;;;;;13.13;8.35;;;;;;;;;;5100724;27;20052;-72
2023/01/07 01:57:51;;;;;;;11.95;7.85;;;;;;;;;;5126096;27;20047;-73
2023/01/07 02:00:17;;;;;;;11.43;8.57;;;;;;;;;;5122055;27;20048;-73
2023/01/07 02:02:53;;;;;;;16.80;8.13;;;;;;;;;;5117669;27;20181;-73
2023/01/07 02:05:19;;;;;;;;;;;;;;;;;;5104019;27;20078;-72
2023/01/07 02:07:45;;;;;;;12.80;8.20;;;;;;;;;;5104754;27;45711;-71
2023/01/07 02:10:16;;;;;;;13.32;7.75;;;;;;;;;;5105361;27;20051;-74
2023/01/07 02:12:52;;;;;;;12.93;8.25;;;;;;;;;;5115191;27;20434;-72
2023/01/07 02:15:37;;;;;;;15.63;8.02;;;;;;;;;;5105217;27;20059;-73
2023/01/07 02:18:10;;;;;;;16.38;9.93;;;;;;;;;;5102245;27;20066;-73
2023/01/07 02:20:46;;;;;;;10.95;7.68;;;;;;;;;;5103357;27;20728;-73
2023/01/07 02:23:31;;;;;;;19.98;8.43;;;;;;;;;;5103326;27;20964;-72
2023/01/07 02:26:17;;;;;;;12.37;7.93;;;;;;;;;;5111090;27;20048;-74
2023/01/07 02:28:58;;;;;;;12.20;8.18;;;;;;;;;;5110485;27;20051;-72
2023/01/07 02:31:44;;;;;;;11.30;7.68;;;;;;;;;;5110675;27;20090;-72
2023/01/07 02:34:29;;;;;;;13.38;8.52;;;;;;;;;;5109100;27;20086;-75
2023/01/07 02:37:25;;;;;;;12.02;7.32;;;;;;;;;;5121078;27;20078;-73
2023/01/07 02:40:09;;;;;;;10.23;7.55;;;;;;;;;;5051911;28;20133;-74
2023/01/07 02:42:36;;;;;;;11.60;8.60;;;;;;;;;;5043773;28;20637;-73
2023/01/07 02:45:22;;;;;;;15.77;8.38;;;;;;;;;;5045190;28;20060;-74
2023/01/07 02:47:52;;;;;;;12.35;7.78;;;;;;;;;;5046425;28;20545;-72
2023/01/07 02:50:18;;;;;;;13.68;7.88;;;;;;;;;;5055111;28;20550;-75
2023/01/07 02:52:44;;;;;;;13.05;7.05;;;;;;;;;;5049804;28;20045;-74
2023/01/07 02:55:12;;;;;;;9.95;7.13;;;;;;;;;;5053434;28;20061;-74
2023/01/07 02:57:57;;;;;;;13.27;7.00;;;;;;;;;;5029542;28;20081;-73
2023/01/07 03:00:24;;;;;;;12.13;6.78;;;;;;;;;;5045763;28;21011;-72
2023/01/07 03:03:08;;;;;;;8.38;6.07;;;;;;;;;;5047907;28;20963;-73
2023/01/07 03:05:35;;;;;;;15.77;7.45;;;;;;;;;;5053717;28;20427;-73
2023/01/07 03:08:14;;;;;;;11.23;6.43;;;;;;;;;;5052075;28;20053;-71
2023/01/07 03:10:40;;;;;;;12.73;7.30;;;;;;;;;;5049612;28;20056;-73
2023/01/07 03:13:13;;;;;;;14.07;6.78;;;;;;;;;;5047412;28;20057;-74
2023/01/07 03:15:42;;;;;;;12.32;7.88;;;;;;;;;;5055775;28;20052;-74
2023/01/07 03:18:14;;;;;;;11.80;7.05;;;;;;;;;;5106211;27;20048;-72
2023/01/07 03:20:42;;;;;;;15.25;8.00;;;;;;;;;;5107001;27;20173;-72
2023/01/07 03:23:10;;;;;;;9.70;6.30;;;;;;;;;;5111194;27;20044;-74
2023/01/07 03:25:39;;;;;;;8.68;6.45;;;;;;;;;;5113577;27;20060;-71
2023/01/07 03:28:07;;;;;;;12.13;6.57;;;;;;;;;;5121602;27;20130;-73
2023/01/07 03:30:34;;;;;;;14.25;6.75;;;;;;;;;;5120251;27;20048;-74
2023/01/07 03:33:03;;;;;;;11.63;7.00;;;;;;;;;;5105315;27;20053;-73
2023/01/07 03:35:31;;;;;;;12.40;6.97;;;;;;;;;;5111315;27;20048;-73
2023/01/07 03:37:58;;;;;;;8.27;6.05;;;;;;;;;;5105261;27;20135;-75
2023/01/07 03:40:25;;;;;;;9.73;6.95;;;;;;;;;;5114902;27;20494;-74
2023/01/07 03:42:52;;;;;;;11.63;6.30;;;;;;;;;;5107616;27;20101;-73
2023/01/07 03:45:22;;;;;;;10.35;6.40;;;;;;;;;;5120597;27;20044;-74
2023/01/07 03:47:50;;;;;;;10.98;6.90;;;;;;;;;;5121890;27;20076;-72
2023/01/07 03:50:17;;;;;;;8.50;6.05;;;;;;;;;;5105321;27;20080;-72
2023/01/07 03:52:44;;;;;;;9.50;5.82;;;;;;;;;;5107870;27;20059;-72
2023/01/07 03:55:10;;;;;;;8.52;6.28;;;;;;;;;;5112883;27;20138;-71
2023/01/07 03:57:37;;;;;;;9.32;5.97;;;;;;;;;;5107486;27;20079;-74
2023/01/07 04:00:05;;;;;;;8.63;6.18;;;;;;;;;;5116829;27;20043;-71
2023/01/07 04:02:31;;;;;;;8.60;5.70;;;;;;;;;;5110799;27;20059;-73
2023/01/07 04:04:58;;;;;;;10.98;6.43;;;;;;;;;;5106613;27;20048;-72
2023/01/07 04:07:24;;;;;;;9.27;6.60;;;;;;;;;;5113153;27;20052;-73
2023/01/07 04:09:50;;;;;;;8.98;6.30;;;;;;;;;;5117212;27;20521;-74
2023/01/07 04:12:17;;;;;;;7.95;5.82;;;;;;;;;;5106706;27;20438;-71
2023/01/07 04:14:43;;;;;;;9.00;5.70;;;;;;;;;;5131551;27;20917;-72
2023/01/07 04:17:10;;;;;;;8.57;5.97;;;;;;;;;;5115898;27;20109;-75
2023/01/07 04:19:37;;;;;;;9.90;6.25;;;;;;;;;;5105927;27;20816;-73
2023/01/07 04:22:09;;;;;;;8.25;5.90;;;;;;;;;;5091982;27;20047;-73
2023/01/07 04:24:35;;;;;;;7.60;5.55;;;;;;;;;;5121795;27;20150;-73
2023/01/07 04:27:02;;;;;;;13.07;5.70;;;;;;;;;;5108295;27;20054;-72
2023/01/07 04:29:29;;;;;;;10.85;5.75;;;;;;;;;;5105552;27;20079;-71
2023/01/07 04:31:55;;;;;;;10.38;5.57;;;;;;;;;;5105874;27;20052;-75
2023/01/07 04:34:22;;;;;;;10.68;6.18;;;;;;;;;;5113349;27;20050;-73
2023/01/07 04:36:48;;;;;;;9.63;6.05;;;;;;;;;;5110790;27;20465;-73
2023/01/07 04:39:15;;;;;;;7.60;5.43;;;;;;;;;;5110262;27;20047;-71
2023/01/07 04:41:41;;;;;;;12.38;5.55;;;;;;;;;;5113832;27;20101;-73
2023/01/07 04:44:08;;;;;;;7.72;5.68;;;;;;;;;;5111347;27;20572;-72
2023/01/07 04:46:34;;;;;;;9.65;5.80;;;;;;;;;;5119329;27;20511;-72
2023/01/07 04:49:00;;;;;;;10.07;5.82;;;;;;;;;;5109472;27;20591;-74
2023/01/07 04:51:27;;;;;;;11.90;6.32;;;;;;;;;;5104708;27;20056;-74
2023/01/07 04:53:55;;;;;;;8.65;5.93;;;;;;;;;;5105418;27;20561;-74
2023/01/07 04:56:21;;;;;;;11.27;5.13;;;;;;;;;;5117264;27;20498;-71
2023/01/07 04:58:48;;;;;;;8.93;5.72;;;;;;;;;;5110024;27;20055;-75
2023/01/07 05:01:14;;;;;;;10.07;5.18;;;;;;;;;;5117382;27;20060;-73
2023/01/07 05:03:41;;;;;;;12.13;5.82;;;;;;;;;;5108823;27;20105;-74
2023/01/07 05:06:08;;;;;;;8.43;4.93;;;;;;;;;;5107513;27;20518;-71
2023/01/07 05:08:34;;;;;;;9.27;5.43;;;;;;;;;;5107723;27;20158;-73
2023/01/07 05:11:02;;;;;;;6.53;4.95;;;;;;;;;;5105104;27;20055;-74
2023/01/07 05:13:30;;;;;;;8.30;5.13;;;;;;;;;;5120406;27;20597;-74
2023/01/07 05:15:56;;;;;;;8.55;5.13;;;;;;;;;;5105720;27;20048;-75
2023/01/07 05:18:23;;;;;;;10.00;5.15;;;;;;;;;;5104230;27;20059;-76
2023/01/07 05:20:49;;;;;;;8.68;5.05;;;;;;;;;;5112789;27;20080;-72
2023/01/07 05:23:15;;;;;;;7.03;4.72;;;;;;;;;;5105832;27;20058;-73
2023/01/07 05:25:42;;;;;;;7.90;4.70;;;;;;;;;;5105171;27;20890;-73
2023/01/07 05:28:08;;;;;;;9.25;4.85;;;;;;;;;;5105956;27;20056;-71
2023/01/07 05:30:34;;;;;;;8.77;5.28;;;;;;;;;;5109537;27;20052;-75
2023/01/07 05:33:01;;;;;;;9.23;5.45;;;;;;;;;;5107275;27;20131;-73
2023/01/07 05:35:27;;;;;;;7.43;4.40;;;;;;;;;;5107415;27;20051;-72
2023/01/07 05:37:53;;;;;;;10.35;4.47;;;;;;;;;;5115343;27;20354;-75
2023/01/07 05:40:20;;;;;;;8.15;4.85;;;;;;;;;;5106450;27;20044;-74
2023/01/07 05:42:46;;;;;;;7.82;4.45;;;;;;;;;;5111463;27;20580;-74
2023/01/07 05:45:12;;;;;;;7.80;4.40;;;;;;;;;;5108892;27;20051;-73
2023/01/07 05:47:38;;;;;;;6.95;4.55;;;;;;;;;;5087162;27;20481;-73
2023/01/07 05:50:05;;;;;;;6.30;4.45;;;;;;;;;;5106914;27;20048;-74
2023/01/07 05:52:31;;;;;;;9.23;4.25;;;;;;;;;;5115006;27;20528;-75
2023/01/07 05:54:58;;;;;;;6.22;4.40;;;;;;;;;;5105589;27;21902;-72
2023/01/07 05:57:24;;;;;;;5.38;4.32;;;;;;;;;;5116818;27;20139;-74
2023/01/07 05:59:50;;;;;;;9.70;4.40;;;;;;;;;;5116256;27;20043;-75
2023/01/07 06:02:17;;;;;;;7.82;4.25;;;;;;;;;;5118842;27;20048;-74
2023/01/07 06:04:43;;;;;;;5.93;4.20;;;;;;;;;;5103731;28;20054;-76
2023/01/07 06:07:10;;;;;;;4.88;3.58;;;;;;;;;;5112855;27;20505;-74
2023/01/07 06:09:36;;;;;;;6.65;3.78;;;;;;;;;;5103357;27;20052;-71
2023/01/07 06:12:02;;;;;;;9.68;3.88;;;;;;;;;;5103091;27;20062;-76
2023/01/07 06:14:29;;;;;;;6.13;3.55;;;;;;;;;;5104888;27;20177;-76
2023/01/07 06:16:55;;;;;;;4.63;3.75;;;;;;;;;;5104783;27;20044;-71
2023/01/07 06:19:21;;;;;;;6.82;3.75;;;;;;;;;;5107372;27;20101;-78
2023/01/07 06:21:48;;;;;;;5.38;3.90;;;;;;;;;;5110223;27;20048;-75
2023/01/07 06:24:15;;;;;;;8.25;3.92;;;;;;;;;;5114481;27;20059;-72
2023/01/07 06:26:41;;;;;;;5.60;3.72;;;;;;;;;;5093954;27;20060;-74
2023/01/07 06:29:08;;;;;;;7.80;4.40;;;;;;;;;;5106585;27;20532;-74
2023/01/07 06:31:35;;;;;;;6.10;3.70;;;;;;;;;;5104732;27;20056;-75
2023/01/07 06:34:01;;;;;;;6.28;3.53;;;;;;;;;;5109418;27;20090;-74
2023/01/07 06:36:27;;;;;;;6.63;3.70;;;;;;;;;;5107733;27;20575;-76
2023/01/07 06:38:54;;;;;;;6.80;3.13;;;;;;;;;;5123926;27;20430;-75
2023/01/07 06:41:20;;;;;;;6.80;3.70;;;;;;;;;;5123227;27;20510;-73
2023/01/07 06:43:46;;;;;;;7.03;3.67;;;;;;;;;;5113138;27;20079;-74
2023/01/07 06:46:13;;;;;;;4.75;3.35;;;;;;;;;;5104134;27;20047;-76
2023/01/07 06:48:40;;;;;;;11.15;3.88;;;;;;;;;;5114123;27;20048;-74
2023/01/07 06:51:07;;;;;;;4.75;3.35;;;;;;;;;;5121714;27;20048;-74
2023/01/07 06:53:33;;;;;;;6.57;2.97;;;;;;;;;;5123382;27;20055;-75
2023/01/07 06:56:00;;;;;;;4.75;3.40;;;;;;;;;;5118785;27;20056;-75
2023/01/07 06:58:26;;;;;;;5.75;3.35;;;;;;;;;;5131939;27;20627;-73
2023/01/07 07:00:52;;;;;;;7.25;3.05;;;;;;;;;;5114420;27;20058;-74
2023/01/07 07:03:19;;;;;;;4.22;2.78;;;;;;;;;;5117029;27;20067;-76
2023/01/07 07:05:45;;;;;;;4.60;2.35;;;;;;;;;;5121696;27;20521;-74
2023/01/07 07:08:11;;;;;;;5.18;2.90;;;;;;;;;;5106934;27;20527;-75
2023/01/07 07:10:38;;;;;;;5.63;3.08;;;;;;;;;;5128188;27;20044;-76
2023/01/07 07:13:05;;;;;;;3.35;2.83;;;;;;;;;;5112344;27;20222;-74
2023/01/07 07:15:31;;;;;;;7.65;2.88;;;;;;;;;;5087829;27;20101;-73
2023/01/07 07:17:57;;;;;;;3.95;2.90;;;;;;;;;;5102280;27;20047;-75
2023/01/07 07:20:24;;;;;;;3.58;2.40;;;;;;;;;;5103685;27;20052;-75
2023/01/07 07:22:50;;;;;;;5.22;2.38;;;;;;;;;;5117386;27;20043;-74
2023/01/07 07:25:16;;;;;;;5.63;2.53;;;;;;;;;;5121488;27;20139;-74
2023/01/07 07:27:44;;;;;;;7.35;2.65;;;;;;;;;;5113026;27;20044;-73
2023/01/07 07:30:10;;;;;;;5.00;2.80;;;;;;;;;;5122089;27;20048;-72
2023/01/07 07:32:37;;;;;;;3.38;2.35;;;;;;;;;;5107335;27;20140;-72
2023/01/07 07:35:03;;;;;;;6.55;3.20;;;;;;;;;;5113507;27;20094;-74
2023/01/07 07:37:30;;;;;;;6.72;2.63;;;;;;;;;;5102205;27;20518;-74
2023/01/07 07:39:56;;;;;;;5.85;2.60;;;;;;;;;;5103739;27;20560;-72
2023/01/07 07:42:22;;;;;;;5.18;2.28;;;;;;;;;;5121530;27;20048;-74
2023/01/07 07:44:49;;;;;;;5.82;2.25;;;;;;;;;;5109454;27;20053;-73
2023/01/07 07:47:15;;;;;;;3.78;2.13;;;;;;;;;;5131056;27;20046;-73
2023/01/07 07:49:42;;;;;;;2.80;2.15;;;;;;;;;;5121583;27;20130;-74
2023/01/07 07:52:08;;;;;;;2.35;1.88;;;;;;;;;;5116642;27;20048;-74
2023/01/07 07:54:35;;;;;;;5.38;2.33;;;;;;;;;;5118558;27;20548;-73
2023/01/07 07:57:02;;;;;;;4.78;1.98;;;;;;;;;;5119530;27;20044;-76
2023/01/07 07:59:29;;;;;;;2.03;1.73;;;;;;;;;;5120684;27;20104;-75
2023/01/07 08:01:55;;;;;;;2.08;1.88;;;;;;;;;;5117872;27;20047;-76
2023/01/07 08:04:21;;;;;;;3.97;2.47;;;;;;;;;;5107118;27;20048;-75
2023/01/07 08:06:48;;;;;;;1.80;1.58;;;;;;;;;;5120798;27;20090;-73
2023/01/07 08:09:14;;;;;;;4.05;1.70;;;;;;;;;;5109093;27;20056;-75
2023/01/07 08:11:41;;;;;;;3.53;1.60;;;;;;;;;;5112785;27;20040;-72
2023/01/07 08:14:08;;;;;;;2.33;1.50;;;;;;;;;;5115676;27;20567;-74
2023/01/07 08:16:34;;;;;;;3.03;1.90;;;;;;;;;;5109815;27;20050;-75
2023/01/07 08:19:01;;;;;;;1.65;1.55;;;;;;;;;;5108137;27;20052;-73
2023/01/07 08:21:27;;;;;;;4.00;1.80;;;;;;;;;;5107145;27;20051;-72
2023/01/07 08:23:53;;;;;;;3.25;1.35;;;;;;;;;;5134593;27;20043;-74
2023/01/07 08:26:20;;;;;;;1.85;1.65;;;;;;;;;;5109083;27;20127;-73
2023/01/07 08:28:46;;;;;;;2.15;1.65;;;;;;;;;;5122198;27;20486;-73
2023/01/07 08:31:12;;;;;;;3.58;1.65;;;;;;;;;;5123643;27;20059;-72
2023/01/07 08:33:39;;;;;;;2.25;1.58;;;;;;;;;;5112905;27;20254;-75
2023/01/07 08:36:06;;;;;;;3.83;1.70;;;;;;;;;;5106077;27;20048;-72
2023/01/07 08:38:49;;;;;;;3.75;1.40;;;;;;;;;;5105368;27;20919;-74
2023/01/07 08:41:15;;;;;;;4.32;1.48;;;;;;;;;;5111278;27;20083;-72
2023/01/07 08:43:43;;;;;;;2.15;1.40;;;;;;;;;;5118885;27;20043;-74
2023/01/07 08:46:10;;;;;;;2.35;1.55;;;;;;;;;;5118880;27;20063;-72
2023/01/07 08:48:39;;;;;;;1.92;1.70;;;;;;;;;;5125775;27;20056;-75
2023/01/07 08:51:06;;;;;;;2.38;1.58;;;;;;;;;;5120266;27;20055;-75
2023/01/07 08:53:34;;;;;;;1.52;1.17;;;;;;;;;;5102750;27;20047;-72
2023/01/07 08:56:00;;;;;;;2.05;1.48;;;;;;;;;;5121112;27;20048;-75
2023/01/07 08:58:26;;;;;;;1.98;1.45;;;;;;;;;;5121483;27;20052;-75
2023/01/07 09:00:53;;;;;;;1.40;1.30;;;;;;;;;;5121678;27;20051;-74
2023/01/07 09:03:19;;;;;;;1.67;1.30;;;;;;;;;;5119991;27;20525;-75
2023/01/07 09:05:46;;;;;;;1.20;1.10;;;;;;;;;;5120925;27;20145;-74
2023/01/07 09:08:12;;;;;;;1.45;1.20;;;;;;;;;;5124030;27;20044;-72
2023/01/07 09:10:38;;;;;;;3.95;1.63;;;;;;;;;;5116991;27;20048;-74
2023/01/07 09:13:05;;;;;;;3.22;1.48;;;;;;;;;;5107927;27;20191;-71
2023/01/07 09:15:31;;;;;;;1.38;1.27;;;;;;;;;;5120889;27;20043;-75
2023/01/07 09:17:58;;;;;;;2.22;1.40;;;;;;;;;;5110928;27;20055;-74
2023/01/07 09:20:25;;;;;;;1.20;1.08;;;;;;;;;;5119358;27;20095;-73
2023/01/07 09:22:52;;;;;;;1.95;1.10;;;;;;;;;;5119268;27;20044;-72
2023/01/07 09:25:18;;;;;;;3.38;1.83;;;;;;;;;;5106847;27;20047;-73
2023/01/07 09:27:45;;;;;;;1.67;1.20;;;;;;;;;;5089867;27;20098;-72
2023/01/07 09:30:11;;;;;;;2.22;1.25;;;;;;;;;;5103614;27;20544;-72
2023/01/07 09:32:38;;;;;;;1.90;1.23;;;;;;;;;;5104155;27;20083;-73
2023/01/07 09:35:04;;;;;;;2.20;1.27;;;;;;;;;;5119613;27;20062;-73
2023/01/07 09:37:31;;;;;;;4.20;1.45;;;;;;;;;;5119596;27;20100;-74
2023/01/07 09:39:59;;;;;;;3.00;1.05;;;;;;;;;;5122838;27;20047;-71
2023/01/07 09:42:39;;;;;;;2.55;1.35;;;;;;;;;;5123857;27;20054;-72
2023/01/07 09:45:21;;;;;;;2.50;1.33;;;;;;;;;;5104517;27;20526;-72
2023/01/07 09:47:56;;;;;;;0.88;0.88;;;;;;;;;;5110091;27;20052;-72
2023/01/07 09:50:36;;;;;;;4.97;1.90;;;;;;;;;;5106301;27;20048;-74
2023/01/07 09:53:06;;;;;;;1.50;1.40;;;;;;;;;;5104374;27;20055;-72
2023/01/07 09:55:33;;;;;;;1.70;1.13;;;;;;;;;;5106977;27;20051;-73
2023/01/07 09:58:00;;;;;;;2.97;1.05;;;;;;;;;;5120864;27;20048;-73
2023/01/07 10:00:27;;;;;;;1.67;0.90;;;;;;;;;;5122424;27;20079;-72
2023/01/07 10:03:12;;;;;;;1.10;0.90;;;;;;;;;;5104551;27;20102;-73
2023/01/07 10:05:50;;;;;;;3.78;1.02;;;;;;;;;;5105133;27;20052;-73
2023/01/07 10:08:29;;;;;;;2.58;1.10;;;;;;;;;;5120343;27;20690;-70
2023/01/07 10:11:03;;;;;;;3.80;0.90;;;;;;;;;;5103173;27;20052;-73
2023/01/07 10:13:48;;;;;;;1.73;1.25;;;;;;;;;;5085345;28;20052;-73
2023/01/07 10:16:24;;;;;;;1.40;1.30;;;;;;;;;;5114611;27;20842;-71
2023/01/07 10:18:50;;;;;;;;;;;;;;;;;;5124550;27;20236;-73
2023/01/07 10:21:22;;;;;;;3.40;1.25;;;;;;;;;;5092709;28;43641;-72
2023/01/07 10:24:11;;;;;;;1.92;1.10;;;;;;;;;;5104860;27;20068;-73
2023/01/07 10:26:40;;;;;;;5.60;1.58;;;;;;;;;;5119393;27;20048;-72
2023/01/07 10:29:15;;;;;;;1.95;1.20;;;;;;;;;;5107757;27;20070;-73
2023/01/07 10:31:43;;;;;;;1.80;1.50;;;;;;;;;;5108808;27;20048;-71
2023/01/07 10:34:14;;;;;;;2.55;1.67;;;;;;;;;;5121272;27;20059;-71
2023/01/07 10:36:51;;;;;;;2.45;1.23;;;;;;;;;;5123107;27;20134;-72
2023/01/07 10:39:29;;;;;;;1.63;1.40;;;;;;;;;;5087673;28;20051;-74
2023/01/07 10:42:11;;;;;;;2.53;1.60;;;;;;;;;;5103825;27;20048;-72
2023/01/07 10:44:43;;;;;;;2.38;2.15;;;;;;;;;;5103772;27;20044;-74
2023/01/07 10:47:24;;;;;;;2.03;1.50;;;;;;;;;;5107218;27;20520;-73
2023/01/07 10:50:09;;;;;;;4.35;1.45;;;;;;;;;;5118065;27;20051;-72
2023/01/07 10:52:36;;;;;;;1.85;1.20;;;;;;;;;;5114725;27;20446;-72
2023/01/07 10:55:02;;;;;;;3.08;1.70;;;;;;;;;;5106983;27;20052;-74
2023/01/07 10:57:29;;;;;;;1.95;1.30;;;;;;;;;;5103827;27;20059;-72
2023/01/07 10:59:58;;;;;;;1.30;1.10;;;;;;;;;;5112570;27;20048;-73
2023/01/07 11:02:26;;;;;;;2.08;1.58;;;;;;;;;;5102375;27;20072;-74
2023/01/07 11:04:54;;;;;;;2.85;1.35;;;;;;;;;;5111380;27;20036;-72
2023/01/07 11:07:23;;;;;;;1.33;1.23;;;;;;;;;;5105415;27;20529;-72
2023/01/07 11:09:51;;;;;;;1.52;1.25;;;;;;;;;;5107862;27;20048;-72
2023/01/07 11:12:26;;;;;;;1.33;1.23;;;;;;;;;;5123529;27;20040;-72
2023/01/07 11:14:53;;;;;;;;;;;;;;;;;;5095824;27;20054;-72
2023/01/07 11:17:29;;;;;;;1.70;1.40;;;;;;;;;;5117116;27;45092;-72
2023/01/07 11:19:55;;;;;;;2.03;1.50;;;;;;;;;;5122058;27;20512;-73
2023/01/07 11:22:24;;;;;;;3.35;1.42;;;;;;;;;;5121609;27;20082;-71
2023/01/07 11:24:55;;;;;;;1.52;1.40;;;;;;;;;;5119699;27;20143;-72
2023/01/07 11:27:23;;;;;;;1.70;1.40;;;;;;;;;;5110202;27;20506;-72
2023/01/07 11:30:04;;;;;;;3.88;1.65;;;;;;;;;;5107705;27;20052;-72
2023/01/07 11:32:31;;;;;;;2.08;1.58;;;;;;;;;;5113266;27;20442;-71
2023/01/07 11:34:59;;;;;;;1.33;1.20;;;;;;;;;;5106773;27;20059;-71
2023/01/07 11:37:30;;;;;;;1.88;1.50;;;;;;;;;;5116011;27;20846;-71
2023/01/07 11:39:58;;;;;;;3.03;1.00;;;;;;;;;;5115543;27;20044;-71
2023/01/07 11:42:39;;;;;;;1.73;1.42;;;;;;;;;;5111087;27;20140;-72
2023/01/07 11:45:13;;;;;;;2.08;1.63;;;;;;;;;;5112011;27;20055;-72
2023/01/07 11:47:45;;;;;;;1.55;1.40;;;;;;;;;;5136709;27;20043;-70
2023/01/07 11:50:44;;;;;;;1.40;1.30;;;;;;;;;;5106141;28;20399;-73
2023/01/07 11:53:11;;;;;;;2.00;1.75;;;;;;;;;;5070939;27;20139;-73
2023/01/07 11:55:38;;;;;;;1.52;1.40;;;;;;;;;;5105942;28;20552;-70
2023/01/07 11:58:05;;;;;;;1.67;1.38;;;;;;;;;;5109740;27;20520;-73
2023/01/07 12:01:03;;;;;;;2.15;1.20;;;;;;;;;;5115982;27;20052;-73
2023/01/07 12:03:30;;;;;;;1.88;1.20;;;;;;;;;;5105508;27;20524;-71
2023/01/07 12:06:00;;;;;;;2.33;1.23;;;;;;;;;;5114304;27;20079;-70
2023/01/07 12:08:26;;;;;;;1.35;1.20;;;;;;;;;;5109860;27;20051;-72
2023/01/07 12:10:54;;;;;;;3.00;2.08;;;;;;;;;;5122192;27;20056;-73
2023/01/07 12:13:24;;;;;;;5.20;2.75;;;;;;;;;;5123342;27;20134;-72
2023/01/07 12:15:53;;;;;;;1.25;1.15;;;;;;;;;;5121121;27;20047;-73
2023/01/07 12:18:35;;;;;;;1.90;0.93;;;;;;;;;;5125711;27;20052;-74
2023/01/07 12:21:22;;;;;;;3.05;1.27;;;;;;;;;;5115154;27;20141;-72
2023/01/07 12:23:51;;;;;;;1.13;1.05;;;;;;;;;;5109311;27;20043;-72
2023/01/07 12:26:23;;;;;;;2.65;1.48;;;;;;;;;;5122365;27;20051;-73
2023/01/07 12:28:49;;;;;;;2.15;0.90;;;;;;;;;;5131018;27;20052;-73
2023/01/07 12:31:26;;;;;;;1.20;1.10;;;;;;;;;;5114719;27;20062;-72
2023/01/07 12:33:55;;;;;;;1.45;1.35;;;;;;;;;;5124062;27;20055;-70
2023/01/07 12:36:37;;;;;;;1.98;1.10;;;;;;;;;;5120815;27;20178;-73
2023/01/07 12:39:08;;;;;;;1.83;1.00;;;;;;;;;;5117965;27;20066;-73
2023/01/07 12:41:44;;;;;;;2.15;1.10;;;;;;;;;;5125027;27;20075;-73
2023/01/07 12:44:11;;;;;;;;;;;;;;;;;;5117474;27;20512;-73
2023/01/07 12:46:39;;;;;;;3.13;1.40;;;;;;;;;;5110496;27;44470;-73
2023/01/07 12:49:09;;;;;;;2.17;1.45;;;;;;;;;;5132555;27;20524;-73
2023/01/07 12:51:47;;;;;;;1.23;1.13;;;;;;;;;;5125599;27;20139;-73
2023/01/07 12:54:21;;;;;;;1.45;1.10;;;;;;;;;;5118338;27;20047;-70
2023/01/07 12:56:57;;;;;;;1.75;1.10;;;;;;;;;;5105163;27;20106;-73
2023/01/07 12:59:26;;;;;;;2.10;1.15;;;;;;;;;;5116281;27;20048;-73
2023/01/07 13:02:31;;;;;;;1.98;1.23;;;;;;;;;;5124741;27;20576;-71
2023/01/07 13:05:13;;;;;;;0.93;0.90;;;;;;;;;;5113674;27;20532;-72
2023/01/07 13:07:54;;;;;;;1.80;1.23;;;;;;;;;;5111677;27;20052;-73
2023/01/07 13:10:20;;;;;;;3.75;1.30;;;;;;;;;;5114245;27;20367;-73
2023/01/07 13:12:47;;;;;;;1.20;1.10;;;;;;;;;;5122090;27;20493;-73
2023/01/07 13:15:19;;;;;;;1.88;1.48;;;;;;;;;;5125100;27;20519;-73
2023/01/07 13:17:47;;;;;;;1.75;1.20;;;;;;;;;;5144816;27;20047;-72
2023/01/07 13:20:14;;;;;;;3.65;1.20;;;;;;;;;;5116969;27;20054;-73
2023/01/07 13:22:50;;;;;;;1.88;1.23;;;;;;;;;;5122281;27;20047;-71
2023/01/07 13:25:29;;;;;;;1.73;1.17;;;;;;;;;;5111916;27;20078;-71
2023/01/07 13:28:01;;;;;;;1.38;1.27;;;;;;;;;;5105189;27;20059;-70
2023/01/07 13:30:34;;;;;;;1.20;1.10;;;;;;;;;;5103554;28;20056;-73
2023/01/07 13:33:07;;;;;;;2.50;1.50;;;;;;;;;;5104190;27;20529;-73
2023/01/07 13:35:54;;;;;;;1.40;1.13;;;;;;;;;;5115960;27;20052;-73
2023/01/07 13:38:32;;;;;;;1.90;1.25;;;;;;;;;;5125032;27;20051;-73
2023/01/07 13:40:58;;;;;;;1.77;1.50;;;;;;;;;;5122457;27;20086;-71
2023/01/07 13:43:24;;;;;;;2.33;1.17;;;;;;;;;;5118353;27;20629;-71
2023/01/07 13:45:56;;;;;;;1.73;1.33;;;;;;;;;;5118601;27;20047;-72
2023/01/07 13:48:24;;;;;;;1.30;1.20;;;;;;;;;;5118969;27;20115;-72
2023/01/07 13:50:54;;;;;;;1.33;1.23;;;;;;;;;;5123754;27;20069;-72
2023/01/07 13:53:20;;;;;;;1.42;1.20;;;;;;;;;;5105979;27;20144;-71
2023/01/07 13:55:47;;;;;;;6.47;1.42;;;;;;;;;;5117758;27;20052;-72
2023/01/07 13:58:34;;;;;;;1.65;1.45;;;;;;;;;;5121749;27;20502;-72
2023/01/07 14:01:08;;;;;;;2.20;1.48;;;;;;;;;;5123402;27;20114;-72
2023/01/07 14:03:42;;;;;;;1.42;1.33;;;;;;;;;;5117853;27;20051;-73
2023/01/07 14:06:18;;;;;;;2.55;1.80;;;;;;;;;;5106070;27;20047;-73
2023/01/07 14:08:51;;;;;;;3.45;1.83;;;;;;;;;;5124910;27;20572;-71
2023/01/07 14:11:30;;;;;;;2.25;1.50;;;;;;;;;;5124052;27;20050;-71
2023/01/07 14:14:02;;;;;;;3.47;1.63;;;;;;;;;;5122899;27;20086;-73
2023/01/07 14:16:30;;;;;;;1.73;1.52;;;;;;;;;;5092990;28;20512;-74
2023/01/07 14:19:16;;;;;;;2.40;1.90;;;;;;;;;;5103949;27;20056;-71
2023/01/07 14:21:54;;;;;;;2.35;1.90;;;;;;;;;;5103637;27;20052;-72
2023/01/07 14:24:29;;;;;;;1.90;1.70;;;;;;;;;;5103300;27;20243;-73
2023/01/07 14:27:07;;;;;;;2.05;1.50;;;;;;;;;;5107750;27;20048;-71
2023/01/07 14:29:47;;;;;;;1.98;1.50;;;;;;;;;;5093664;28;20052;-73
2023/01/07 14:32:16;;;;;;;2.47;1.60;;;;;;;;;;5103960;28;20059;-73
2023/01/07 14:34:51;;;;;;;1.60;1.50;;;;;;;;;;5102337;27;20514;-72
2023/01/07 14:37:27;;;;;;;1.77;1.45;;;;;;;;;;5114158;27;20513;-72
2023/01/07 14:39:53;;;;;;;1.77;1.55;;;;;;;;;;5114615;27;20953;-73
2023/01/07 14:42:19;;;;;;;4.03;1.65;;;;;;;;;;5103134;27;20589;-72
2023/01/07 14:44:48;;;;;;;2.70;1.60;;;;;;;;;;5115212;27;20067;-71
2023/01/07 14:47:34;;;;;;;4.03;1.80;;;;;;;;;;5103964;27;20047;-71
2023/01/07 14:50:11;;;;;;;3.03;1.60;;;;;;;;;;5121251;27;20051;-73
2023/01/07 14:52:48;;;;;;;2.05;1.83;;;;;;;;;;5124223;27;20515;-72
2023/01/07 14:55:33;;;;;;;2.03;1.75;;;;;;;;;;5103820;28;20585;-72
2023/01/07 14:58:18;;;;;;;2.97;2.30;;;;;;;;;;5103750;28;20080;-71